Time;durP1;ratioP1;P1;durP2;ratioP2;P2;SDS_P1;SDS_P2;PMS_P1;PMS_P2;Temp;Humidity;BMP_temperature;BMP_pressure;BME280_temperature;BME280_humidity;BME280_pressure;Samples;Min_cycle;Max_cycle;Signal;HPM_P1;HPM_P2
2022/09/14 00:00:45;;;;;;;3.97;1.60;;;;;19.70;93372.00;;;;7394930;19;20143;-77
2022/09/14 00:03:32;;;;;;;6.40;1.70;;;;;19.70;93368.00;;;;7397004;19;20135;-78
2022/09/14 00:06:16;;;;;;;2.80;1.95;;;;;19.60;93366.00;;;;7394425;19;20234;-78
2022/09/14 00:08:44;;;;;;;1.75;1.50;;;;;19.70;93355.00;;;;7392389;19;20132;-80
2022/09/14 00:11:32;;;;;;;4.30;1.73;;;;;19.70;93360.00;;;;7392787;19;20144;-78
2022/09/14 00:14:07;;;;;;;3.05;1.67;;;;;19.70;93361.00;;;;7392214;19;20121;-77
2022/09/14 00:16:41;;;;;;;2.58;1.50;;;;;19.80;93365.00;;;;7392293;19;20622;-77
2022/09/14 00:19:35;;;;;;;7.25;1.55;;;;;19.50;93359.00;;;;7392571;19;20478;-78
2022/09/14 00:22:10;;;;;;;5.25;1.48;;;;;19.40;93348.00;;;;7392989;19;20125;-76
2022/09/14 00:24:39;;;;;;;3.35;1.95;;;;;19.30;93357.00;;;;7392071;19;20145;-77
2022/09/14 00:27:09;;;;;;;1.90;1.70;;;;;19.20;93354.00;;;;7391370;19;20149;-78
2022/09/14 00:29:42;;;;;;;2.92;1.98;;;;;19.30;93344.00;;;;7390569;19;20132;-78
2022/09/14 00:32:10;;;;;;;2.53;1.88;;;;;19.30;93337.00;;;;7391861;19;20598;-77
2022/09/14 00:34:39;;;;;;;3.03;1.83;;;;;19.20;93333.00;;;;7390099;19;20192;-78
2022/09/14 00:37:14;;;;;;;1.77;1.67;;;;;19.20;93326.00;;;;7393051;19;20129;-76
2022/09/14 00:39:41;;;;;;;6.45;1.98;;;;;19.20;93318.00;;;;7391994;19;20128;-79
2022/09/14 00:42:14;;;;;;;1.80;1.48;;;;;19.20;93309.00;;;;7390393;19;20132;-77
2022/09/14 00:44:49;;;;;;;3.05;2.05;;;;;19.30;93308.00;;;;7392684;19;20145;-79
2022/09/14 00:47:17;;;;;;;2.05;1.50;;;;;19.20;93304.00;;;;7392924;19;20120;-79
2022/09/14 00:49:45;;;;;;;1.92;1.60;;;;;19.30;93296.00;;;;7390732;19;20136;-79
2022/09/14 00:52:26;;;;;;;1.70;1.60;;;;;19.40;93285.00;;;;7389783;19;20631;-78
2022/09/14 00:55:12;;;;;;;4.75;1.90;;;;;19.50;93291.00;;;;7391333;19;20124;-78
2022/09/14 00:57:49;;;;;;;3.70;1.60;;;;;19.40;93286.00;;;;7392926;19;20144;-77
2022/09/14 01:00:20;;;;;;;3.85;1.65;;;;;19.00;93283.00;;;;7389130;19;20143;-77
2022/09/14 01:02:55;;;;;;;2.05;1.77;;;;;18.60;93277.00;;;;7389800;19;20606;-76
2022/09/14 01:05:46;;;;;;;2.00;1.55;;;;;18.00;93280.00;;;;7391286;19;20605;-76
2022/09/14 01:08:46;;;;;;;3.55;2.60;;;;;18.00;93271.00;;;;7391260;19;20125;-76
2022/09/14 01:11:40;;;;;;;6.25;1.70;;;;;18.10;93275.00;;;;7390597;19;20610;-77
2022/09/14 01:14:42;;;;;;;2.88;2.03;;;;;17.50;93309.00;;;;7391715;19;20116;-78
2022/09/14 01:17:34;;;;;;;2.67;2.00;;;;;16.90;93369.00;;;;7390810;19;20129;-78
2022/09/14 01:20:32;;;;;;;5.90;2.60;;;;;16.50;93427.00;;;;7392313;19;20510;-77
2022/09/14 01:23:25;;;;;;;5.35;3.28;;;;;16.10;93408.00;;;;7396821;19;20559;-80
2022/09/14 01:26:27;;;;;;;11.95;3.10;;;;;16.00;93441.00;;;;7401603;19;20516;-80
2022/09/14 01:29:15;;;;;;;11.10;3.38;;;;;16.20;93421.00;;;;7394189;19;20141;-78
2022/09/14 01:35:08;;;;;;;6.90;4.18;;;;;16.20;93350.00;;;;7382172;19;20207;-75
2022/09/14 01:38:06;;;;;;;5.68;3.88;;;;;16.30;93353.00;;;;7390407;19;20483;-77
2022/09/14 01:40:46;;;;;;;9.40;3.80;;;;;16.20;93362.00;;;;7390041;19;20603;-77
2022/09/14 01:43:30;;;;;;;9.13;3.25;;;;;16.30;93359.00;;;;7389943;19;20133;-77
2022/09/14 01:46:13;;;;;;;7.63;2.90;;;;;16.30;93354.00;;;;7389648;19;20152;-78
2022/09/14 01:49:06;;;;;;;5.32;3.17;;;;;16.20;93355.00;;;;7389048;19;20192;-77
2022/09/14 01:52:34;;;;;;;7.68;3.22;;;;;16.10;93364.00;;;;7390428;19;20132;-76
2022/09/14 01:55:27;;;;;;;5.95;2.92;;;;;16.20;93371.00;;;;7391202;19;20142;-77
2022/09/14 01:58:11;;;;;;;5.93;3.35;;;;;16.10;93369.00;;;;7391531;19;20136;-76
2022/09/14 02:00:48;;;;;;;5.63;3.20;;;;;16.10;93345.00;;;;7392045;19;20145;-77
2022/09/14 02:03:20;;;;;;;4.57;3.25;;;;;16.10;93353.00;;;;7393989;19;20137;-76
2022/09/14 02:06:10;;;;;;;6.50;3.50;;;;;16.20;93356.00;;;;7393621;19;20200;-77
2022/09/14 02:08:41;;;;;;;7.28;3.85;;;;;16.20;93345.00;;;;7394487;19;20145;-77
2022/09/14 02:11:15;;;;;;;7.03;4.00;;;;;16.20;93346.00;;;;7392441;19;20136;-77
2022/09/14 02:13:44;;;;;;;14.00;4.43;;;;;16.20;93336.00;;;;7391460;19;20144;-77
2022/09/14 02:16:12;;;;;;;8.38;4.00;;;;;16.20;93341.00;;;;7390835;19;20140;-77
2022/09/14 02:18:46;;;;;;;6.68;3.95;;;;;16.10;93347.00;;;;7390072;19;20139;-77
2022/09/14 02:21:20;;;;;;;8.80;4.60;;;;;16.20;93351.00;;;;7389033;19;20614;-77
2022/09/14 02:23:57;;;;;;;6.43;4.45;;;;;16.20;93355.00;;;;7389806;19;20479;-77
2022/09/14 02:26:26;;;;;;;8.98;3.75;;;;;16.10;93343.00;;;;7389731;19;20595;-78
2022/09/14 02:28:56;;;;;;;9.48;4.40;;;;;16.10;93356.00;;;;7387184;19;20149;-78
2022/09/14 02:31:51;;;;;;;8.20;4.32;;;;;16.10;93344.00;;;;7387176;19;20613;-78
2022/09/14 02:34:50;;;;;;;6.13;3.90;;;;;16.00;93337.00;;;;7386875;19;20180;-78
2022/09/14 02:37:43;;;;;;;5.78;3.95;;;;;16.00;93334.00;;;;7390173;19;20142;-77
2022/09/14 02:40:45;;;;;;;5.55;4.07;;;;;15.90;93330.00;;;;7388634;19;20144;-77
2022/09/14 02:43:35;;;;;;;9.20;4.55;;;;;16.00;93337.00;;;;7396050;19;20132;-77
2022/09/14 02:46:05;;;;;;;7.20;4.15;;;;;15.90;93331.00;;;;7397761;19;20469;-77
2022/09/14 02:49:19;;;;;;;6.35;4.03;;;;;15.90;93335.00;;;;7394457;19;20148;-77
2022/09/14 02:52:14;;;;;;;6.88;4.18;;;;;15.90;93327.00;;;;7395872;19;20132;-77
2022/09/14 02:54:52;;;;;;;8.95;4.28;;;;;15.80;93320.00;;;;7397057;19;20112;-77
2022/09/14 02:57:19;;;;;;;7.10;4.28;;;;;15.80;93298.00;;;;7394811;19;20603;-78
2022/09/14 02:59:46;;;;;;;6.30;4.70;;;;;15.80;93292.00;;;;7394642;19;20121;-77
2022/09/14 03:02:21;;;;;;;5.60;4.00;;;;;15.80;93294.00;;;;7394031;19;20120;-78
2022/09/14 03:04:49;;;;;;;4.88;4.43;;;;;15.80;93294.00;;;;7394421;19;20145;-79
2022/09/14 03:07:16;;;;;;;7.47;5.15;;;;;15.80;93284.00;;;;7394182;19;20128;-78
2022/09/14 03:09:50;;;;;;;9.57;5.25;;;;;15.90;93279.00;;;;7393165;19;20471;-78
2022/09/14 03:12:17;;;;;;;5.40;4.40;;;;;15.90;93271.00;;;;7394331;19;20139;-78
2022/09/14 03:14:45;;;;;;;10.60;5.05;;;;;15.90;93273.00;;;;7394234;19;20156;-78
2022/09/14 03:17:19;;;;;;;5.60;4.65;;;;;15.90;93270.00;;;;7394413;19;20143;-78
2022/09/14 03:19:47;;;;;;;11.35;5.03;;;;;15.90;93271.00;;;;7394376;19;20145;-77
2022/09/14 03:22:16;;;;;;;11.30;5.70;;;;;15.90;93271.00;;;;7394656;19;20129;-77
2022/09/14 03:24:53;;;;;;;6.47;4.97;;;;;15.90;93269.00;;;;7394212;19;20136;-78
2022/09/14 03:27:21;;;;;;;10.52;6.05;;;;;16.00;93267.00;;;;7394254;19;20143;-78
2022/09/14 03:29:48;;;;;;;12.43;6.82;;;;;16.00;93254.00;;;;7391516;19;20137;-77
2022/09/14 03:32:23;;;;;;;118.82;11.90;;;;;16.10;93257.00;;;;7392443;19;20147;-78
2022/09/14 03:34:59;;;;;;;35.47;9.07;;;;;16.10;93248.00;;;;7392787;19;20195;-78
2022/09/14 03:37:37;;;;;;;56.35;11.35;;;;;16.10;93245.00;;;;7394103;19;20581;-78
2022/09/14 03:40:06;;;;;;;237.43;16.30;;;;;16.10;93248.00;;;;7393291;19;20151;-78
2022/09/14 03:42:49;;;;;;;140.05;14.52;;;;;16.10;93242.00;;;;7393482;19;20611;-77
2022/09/14 03:45:18;;;;;;;90.43;11.05;;;;;16.10;93239.00;;;;7393245;19;20121;-77
2022/09/14 03:47:51;;;;;;;21.95;8.75;;;;;16.10;93236.00;;;;7394210;19;20128;-78
2022/09/14 03:50:19;;;;;;;33.75;10.25;;;;;16.10;93243.00;;;;7390570;19;20133;-77
2022/09/14 03:52:47;;;;;;;21.23;9.75;;;;;16.20;93247.00;;;;7393261;19;20129;-77
2022/09/14 03:55:20;;;;;;;30.92;9.45;;;;;16.10;93251.00;;;;7393083;19;20471;-78
2022/09/14 03:57:51;;;;;;;34.00;10.80;;;;;16.10;93246.00;;;;7392444;19;20738;-77
2022/09/14 04:00:19;;;;;;;233.68;18.17;;;;;16.10;93238.00;;;;7392331;19;20137;-78
2022/09/14 04:02:53;;;;;;;336.23;21.98;;;;;16.10;93224.00;;;;7390888;19;20591;-77
2022/09/14 04:05:20;;;;;;;484.42;26.15;;;;;16.10;93232.00;;;;7392595;19;20144;-78
2022/09/14 04:07:48;;;;;;;492.05;26.17;;;;;16.10;93227.00;;;;7393527;19;20140;-77
2022/09/14 04:10:21;;;;;;;47.78;12.68;;;;;16.20;93231.00;;;;7390709;19;20513;-79
2022/09/14 04:12:49;;;;;;;178.60;16.65;;;;;16.10;93238.00;;;;7391693;19;20603;-79
2022/09/14 04:15:17;;;;;;;296.95;20.70;;;;;16.10;93236.00;;;;7393234;19;20144;-78
2022/09/14 04:17:50;;;;;;;379.10;22.67;;;;;16.20;93239.00;;;;7394011;19;20143;-79
2022/09/14 04:20:20;;;;;;;230.95;19.75;;;;;16.20;93229.00;;;;7393977;19;20137;-79
2022/09/14 04:22:47;;;;;;;178.20;16.30;;;;;16.20;93240.00;;;;7394183;19;20127;-80
2022/09/14 04:25:22;;;;;;;175.73;17.27;;;;;16.20;93240.00;;;;7394835;19;20192;-79
2022/09/14 04:27:50;;;;;;;137.63;15.32;;;;;16.20;93240.00;;;;7394141;19;20583;-80
2022/09/14 04:30:38;;;;;;;46.22;12.48;;;;;16.20;93242.00;;;;7391785;19;20129;-79
2022/09/14 04:33:11;;;;;;;15.20;9.70;;;;;16.20;93257.00;;;;7390535;19;20144;-79
2022/09/14 04:35:45;;;;;;;21.27;10.57;;;;;16.30;93257.00;;;;7393000;19;20144;-81
2022/09/14 04:38:21;;;;;;;13.80;8.95;;;;;16.30;93260.00;;;;7391529;19;20170;-80
2022/09/14 04:40:49;;;;;;;7.53;6.40;;;;;16.40;93264.00;;;;7391458;19;20224;-80
2022/09/14 04:43:16;;;;;;;6.90;5.65;;;;;16.60;93262.00;;;;7392979;19;20202;-79
2022/09/14 04:45:50;;;;;;;7.43;6.30;;;;;16.80;93268.00;;;;7392014;19;20145;-80
2022/09/14 04:48:19;;;;;;;8.90;7.15;;;;;16.80;93273.00;;;;7390169;19;20141;-80
2022/09/14 04:50:46;;;;;;;7.40;6.57;;;;;16.90;93262.00;;;;7390855;19;20136;-79
2022/09/14 04:53:21;;;;;;;9.38;6.68;;;;;17.00;93264.00;;;;7392055;19;20136;-80
2022/09/14 04:55:48;;;;;;;6.72;6.03;;;;;17.10;93257.00;;;;7390175;19;20128;-80
2022/09/14 04:58:15;;;;;;;6.60;5.95;;;;;17.10;93275.00;;;;7391131;19;20125;-80
2022/09/14 05:00:49;;;;;;;14.02;6.60;;;;;17.20;93273.00;;;;7390788;19;20141;-79
2022/09/14 05:03:16;;;;;;;7.50;6.63;;;;;17.20;93266.00;;;;7390476;19;20132;-80
2022/09/14 05:05:44;;;;;;;7.75;6.18;;;;;17.20;93266.00;;;;7389469;19;20144;-80
2022/09/14 05:08:18;;;;;;;8.30;6.30;;;;;17.30;93275.00;;;;7392302;19;20154;-80
2022/09/14 05:10:46;;;;;;;7.10;6.40;;;;;17.30;93265.00;;;;7388820;19;20626;-79
2022/09/14 05:13:15;;;;;;;7.90;6.55;;;;;17.30;93263.00;;;;7390774;19;20137;-79
2022/09/14 05:15:50;;;;;;;7.13;6.25;;;;;17.40;93259.00;;;;7391219;19;20140;-79
2022/09/14 05:18:18;;;;;;;9.20;6.20;;;;;17.40;93263.00;;;;7389707;19;20140;-79
2022/09/14 05:20:48;;;;;;;7.10;5.57;;;;;17.50;93261.00;;;;7390052;19;20866;-79
2022/09/14 05:23:23;;;;;;;8.65;6.30;;;;;17.50;93258.00;;;;7392445;19;20199;-79
2022/09/14 05:25:53;;;;;;;9.40;5.97;;;;;17.60;93263.00;;;;7389407;19;20117;-80
2022/09/14 05:28:21;;;;;;;7.38;5.90;;;;;17.60;93265.00;;;;7389176;19;20124;-80
2022/09/14 05:30:55;;;;;;;7.05;6.35;;;;;17.60;93268.00;;;;7388605;19;20133;-79
2022/09/14 05:33:23;;;;;;;7.63;6.43;;;;;17.70;93269.00;;;;7390393;19;20141;-80
2022/09/14 05:35:51;;;;;;;6.78;5.95;;;;;17.80;93269.00;;;;7387926;19;20168;-80
2022/09/14 05:38:26;;;;;;;9.70;5.70;;;;;17.60;93266.00;;;;7389401;19;20144;-80
2022/09/14 05:40:54;;;;;;;10.00;6.72;;;;;17.70;93255.00;;;;7390340;19;20128;-80
2022/09/14 05:43:22;;;;;;;8.45;6.28;;;;;17.80;93251.00;;;;7389341;19;20675;-80
2022/09/14 05:46:00;;;;;;;10.00;6.78;;;;;17.80;93242.00;;;;7390930;19;20128;-81
2022/09/14 05:48:31;;;;;;;10.50;6.10;;;;;17.90;93245.00;;;;7389980;19;20125;-80
2022/09/14 05:51:15;;;;;;;11.07;6.15;;;;;18.00;93252.00;;;;7391872;19;20196;-81
2022/09/14 05:53:47;;;;;;;9.70;6.03;;;;;17.90;93256.00;;;;7392882;19;20162;-80
2022/09/14 05:56:22;;;;;;;8.18;5.97;;;;;17.90;93261.00;;;;7392188;19;20144;-79
2022/09/14 05:58:51;;;;;;;7.53;5.57;;;;;17.90;93271.00;;;;7394362;19;20188;-80
2022/09/14 06:01:27;;;;;;;10.10;6.20;;;;;17.90;93277.00;;;;7392542;19;20488;-80
2022/09/14 06:04:03;;;;;;;10.52;6.18;;;;;17.90;93270.00;;;;7391937;19;20121;-80
2022/09/14 06:06:31;;;;;;;7.45;5.72;;;;;17.90;93282.00;;;;7392623;19;20141;-80
2022/09/14 06:09:00;;;;;;;11.05;6.25;;;;;17.90;93288.00;;;;7391041;19;20140;-80
2022/09/14 06:11:35;;;;;;;6.47;5.22;;;;;17.90;93297.00;;;;7388575;19;20156;-80
2022/09/14 06:14:03;;;;;;;7.00;5.28;;;;;17.90;93285.00;;;;7388870;19;20137;-79
2022/09/14 06:16:30;;;;;;;8.05;5.22;;;;;17.90;93294.00;;;;7394012;19;20129;-82
2022/09/14 06:19:04;;;;;;;8.48;5.20;;;;;17.90;93299.00;;;;7396685;19;20170;-81
2022/09/14 06:21:34;;;;;;;7.45;4.93;;;;;17.80;93297.00;;;;7396167;19;20151;-79
2022/09/14 06:24:02;;;;;;;8.40;5.22;;;;;18.00;93299.00;;;;7398467;19;20483;-79
2022/09/14 06:26:36;;;;;;;8.68;5.10;;;;;18.10;93302.00;;;;7395668;19;20127;-79
2022/09/14 06:29:04;;;;;;;9.25;5.03;;;;;18.00;93296.00;;;;7395255;19;20137;-80
2022/09/14 06:31:32;;;;;;;7.32;4.45;;;;;18.00;93290.00;;;;7396802;19;20177;-80
2022/09/14 06:34:21;;;;;;;11.07;5.15;;;;;18.10;93283.00;;;;7392813;19;20631;-80
2022/09/14 06:36:55;;;;;;;9.38;4.10;;;;;18.00;93293.00;;;;7396125;19;20140;-81
2022/09/14 06:39:29;;;;;;;8.27;4.80;;;;;18.00;93287.00;;;;7395284;19;20145;-79
2022/09/14 06:41:56;;;;;;;5.60;4.35;;;;;18.00;93297.00;;;;7396009;19;20128;-78
2022/09/14 06:44:24;;;;;;;5.80;4.47;;;;;18.10;93285.00;;;;7395094;19;20124;-80
2022/09/14 06:46:59;;;;;;;8.50;4.47;;;;;18.20;93279.00;;;;7394597;19;21264;-80
2022/09/14 06:49:27;;;;;;;6.43;4.43;;;;;18.40;93286.00;;;;7395120;19;20125;-80
2022/09/14 06:51:56;;;;;;;6.50;4.50;;;;;18.50;93276.00;;;;7395777;19;20476;-81
2022/09/14 06:54:30;;;;;;;9.52;4.78;;;;;18.70;93281.00;;;;7394251;19;20145;-82
2022/09/14 06:56:57;;;;;;;6.72;4.05;;;;;18.90;93283.00;;;;7395138;19;20121;-81
2022/09/14 06:59:25;;;;;;;7.18;4.07;;;;;18.80;93283.00;;;;7394918;19;20121;-82
2022/09/14 07:01:59;;;;;;;6.35;4.10;;;;;18.70;93280.00;;;;7394743;19;20136;-80
2022/09/14 07:04:27;;;;;;;5.50;3.90;;;;;18.70;93291.00;;;;7393436;19;20137;-81
2022/09/14 07:06:54;;;;;;;5.00;4.00;;;;;18.70;93298.00;;;;7396195;19;20568;-82
2022/09/14 07:09:30;;;;;;;5.07;3.33;;;;;18.60;93296.00;;;;7394049;19;20591;-83
2022/09/14 07:11:57;;;;;;;3.83;3.33;;;;;18.50;93300.00;;;;7395823;19;20129;-83
2022/09/14 07:14:25;;;;;;;6.65;3.42;;;;;18.40;93301.00;;;;7396056;19;20125;-83
2022/09/14 07:16:59;;;;;;;7.63;3.63;;;;;18.50;93304.00;;;;7393969;19;20492;-82
2022/09/14 07:19:26;;;;;;;6.80;3.28;;;;;18.70;93300.00;;;;7393607;19;20137;-82
2022/09/14 07:21:54;;;;;;;5.90;3.42;;;;;18.80;93300.00;;;;7397080;19;20141;-81
2022/09/14 07:24:28;;;;;;;4.90;3.55;;;;;19.00;93287.00;;;;7393731;19;20147;-82
2022/09/14 07:26:55;;;;;;;4.78;3.05;;;;;19.10;93291.00;;;;7392573;19;20141;-82
2022/09/14 07:29:23;;;;;;;5.25;2.90;;;;;19.30;93274.00;;;;7393701;19;20129;-81
2022/09/14 07:31:59;;;;;;;4.13;3.05;;;;;19.50;93275.00;;;;7393956;19;20136;-82
2022/09/14 07:34:33;;;;;;;8.18;2.95;;;;;19.70;93279.00;;;;7391158;19;20187;-82
2022/09/14 07:37:08;;;;;;;3.42;2.90;;;;;19.90;93301.00;;;;7394426;19;20133;-79
2022/09/14 07:39:35;;;;;;;3.78;3.00;;;;;19.70;93302.00;;;;7394609;19;20141;-81
2022/09/14 07:42:03;;;;;;;3.08;2.60;;;;;19.70;93306.00;;;;7393459;19;20609;-82
2022/09/14 07:44:36;;;;;;;3.08;2.78;;;;;19.50;93305.00;;;;7392269;19;20137;-80
2022/09/14 07:47:04;;;;;;;6.10;3.20;;;;;19.60;93300.00;;;;7394165;19;20154;-80
2022/09/14 07:49:33;;;;;;;5.30;2.90;;;;;19.50;93301.00;;;;7392911;19;20140;-80
2022/09/14 07:52:07;;;;;;;5.10;2.92;;;;;19.60;93312.00;;;;7392505;19;20140;-81
2022/09/14 07:54:35;;;;;;;3.83;2.70;;;;;19.60;93294.00;;;;7393086;19;20591;-81
2022/09/14 07:57:02;;;;;;;6.07;2.60;;;;;19.80;93306.00;;;;7395174;19;20133;-83
2022/09/14 07:59:39;;;;;;;6.90;2.47;;;;;19.70;93316.00;;;;7393546;19;20136;-81
2022/09/14 08:02:07;;;;;;;4.32;2.53;;;;;19.80;93304.00;;;;7396378;19;20124;-82
2022/09/14 08:04:36;;;;;;;7.85;2.53;;;;;20.20;93316.00;;;;7395430;19;20205;-81
2022/09/14 08:07:14;;;;;;;4.30;2.60;;;;;20.20;93321.00;;;;7390804;19;20177;-80
2022/09/14 08:09:41;;;;;;;6.10;3.33;;;;;20.00;93336.00;;;;7393938;19;20155;-81
2022/09/14 08:12:09;;;;;;;3.80;2.72;;;;;19.80;93339.00;;;;7395481;19;20140;-80
2022/09/14 08:14:43;;;;;;;6.72;3.00;;;;;19.70;93333.00;;;;7392823;19;20231;-81
2022/09/14 08:17:10;;;;;;;4.32;2.78;;;;;19.70;93351.00;;;;7394549;19;20275;-82
2022/09/14 08:19:40;;;;;;;4.63;2.60;;;;;19.60;93365.00;;;;7396765;19;20137;-81
2022/09/14 08:22:14;;;;;;;4.30;2.92;;;;;19.50;93368.00;;;;7396704;19;20207;-82
2022/09/14 08:24:41;;;;;;;6.05;2.53;;;;;19.20;93388.00;;;;7394567;19;20144;-82
2022/09/14 08:27:10;;;;;;;7.07;2.67;;;;;19.10;93398.00;;;;7394617;19;20132;-83
2022/09/14 08:29:44;;;;;;;4.35;2.80;;;;;19.00;93388.00;;;;7392712;19;20599;-81
2022/09/14 08:32:14;;;;;;;4.75;3.20;;;;;19.00;93381.00;;;;7393450;19;20246;-83
2022/09/14 08:34:41;;;;;;;5.38;3.25;;;;;18.90;93378.00;;;;7390800;19;20181;-82
2022/09/14 08:37:15;;;;;;;2.92;2.63;;;;;19.00;93378.00;;;;7390437;19;20132;-81
2022/09/14 08:39:44;;;;;;;4.68;3.10;;;;;19.20;93383.00;;;;7391634;19;20196;-82
2022/09/14 08:42:24;;;;;;;5.68;2.75;;;;;19.30;93384.00;;;;7391281;19;20163;-80
2022/09/14 08:45:03;;;;;;;4.63;3.00;;;;;19.30;93382.00;;;;7392641;19;20135;-82
2022/09/14 08:47:40;;;;;;;6.68;3.20;;;;;19.70;93379.00;;;;7392895;19;20148;-81
2022/09/14 08:50:17;;;;;;;5.50;3.78;;;;;20.00;93375.00;;;;7386866;19;20146;-80
2022/09/14 08:52:53;;;;;;;6.35;3.70;;;;;20.60;93371.00;;;;7391425;19;20133;-80
2022/09/14 08:55:50;;;;;;;9.70;3.85;;;;;20.60;93368.00;;;;7384971;19;20573;-76
2022/09/14 08:58:34;;;;;;;3.78;3.13;;;;;20.40;93365.00;;;;7386906;19;20587;-78
2022/09/14 09:01:35;;;;;;;4.70;2.78;;;;;20.30;93364.00;;;;7385657;19;20196;-78
2022/09/14 09:04:27;;;;;;;6.38;3.15;;;;;20.30;93372.00;;;;7385395;19;20145;-78
2022/09/14 09:07:08;;;;;;;4.15;2.58;;;;;20.10;93362.00;;;;7392584;19;20137;-81
2022/09/14 09:09:54;;;;;;;3.50;1.90;;;;;19.90;93355.00;;;;7388383;19;20144;-79
2022/09/14 09:12:41;;;;;;;8.88;2.50;;;;;20.00;93378.00;;;;7392087;19;20129;-80
2022/09/14 09:15:20;;;;;;;5.13;2.42;;;;;20.00;93383.00;;;;7390145;19;20129;-82
2022/09/14 09:18:00;;;;;;;7.80;2.63;;;;;19.90;93381.00;;;;7389752;19;20208;-79
2022/09/14 09:20:39;;;;;;;3.22;2.22;;;;;20.00;93376.00;;;;7389615;19;20218;-80
2022/09/14 09:23:17;;;;;;;4.47;2.40;;;;;19.90;93379.00;;;;7391065;19;20154;-80
2022/09/14 09:26:03;;;;;;;5.45;2.53;;;;;20.00;93376.00;;;;7391549;19;20133;-81
2022/09/14 09:28:59;;;;;;;4.40;2.75;;;;;20.10;93376.00;;;;7390591;19;20135;-79
2022/09/14 09:31:39;;;;;;;4.13;2.55;;;;;20.20;93371.00;;;;7389912;19;20129;-81
2022/09/14 09:34:32;;;;;;;3.40;2.58;;;;;20.30;93363.00;;;;7387357;19;21340;-80
2022/09/14 09:37:10;;;;;;;6.03;2.75;;;;;20.70;93343.00;;;;7388730;19;20155;-80
2022/09/14 09:39:45;;;;;;;5.25;2.63;;;;;20.90;93324.00;;;;7391248;19;20130;-80
2022/09/14 09:42:30;;;;;;;4.88;2.83;;;;;21.30;93325.00;;;;7390875;19;20136;-79
2022/09/14 09:45:05;;;;;;;6.95;2.92;;;;;22.10;93308.00;;;;7389572;19;20220;-80
2022/09/14 09:47:38;;;;;;;4.72;2.53;;;;;22.70;93312.00;;;;7392701;19;20495;-80
2022/09/14 09:50:17;;;;;;;4.68;2.28;;;;;22.70;93301.00;;;;7394214;19;20192;-78
2022/09/14 09:52:56;;;;;;;4.50;2.40;;;;;22.30;93290.00;;;;7403325;19;20121;-79
2022/09/14 09:55:40;;;;;;;3.70;2.42;;;;;22.10;93288.00;;;;7403430;19;20410;-79
2022/09/14 09:58:33;;;;;;;5.90;2.10;;;;;22.20;93278.00;;;;7401899;19;20477;-79
2022/09/14 10:01:25;;;;;;;6.45;2.15;;;;;22.70;93293.00;;;;7399642;19;20117;-78
2022/09/14 10:04:03;;;;;;;2.95;1.90;;;;;23.00;93299.00;;;;7402381;19;20147;-79
2022/09/14 10:06:52;;;;;;;4.75;2.35;;;;;22.90;93297.00;;;;7400516;19;20124;-81
2022/09/14 10:09:26;;;;;;;4.97;2.17;;;;;22.30;93291.00;;;;7397518;19;20153;-79
2022/09/14 10:12:02;;;;;;;6.22;1.90;;;;;22.30;93286.00;;;;7397306;19;20196;-79
2022/09/14 10:14:31;;;;;;;4.00;1.98;;;;;22.70;93284.00;;;;7397275;19;20117;-78
2022/09/14 10:17:21;;;;;;;4.80;1.77;;;;;22.90;93265.00;;;;7397603;19;20588;-80
2022/09/14 10:19:57;;;;;;;3.13;1.70;;;;;22.80;93263.00;;;;7396188;19;20147;-78
2022/09/14 10:22:36;;;;;;;3.28;2.13;;;;;22.70;93252.00;;;;7395715;19;20136;-78
2022/09/14 10:25:13;;;;;;;6.15;1.75;;;;;22.80;93241.00;;;;7398061;19;20117;-78
2022/09/14 10:27:47;;;;;;;2.22;1.55;;;;;22.80;93238.00;;;;7397627;19;20202;-78
2022/09/14 10:30:35;;;;;;;2.60;1.60;;;;;23.00;93239.00;;;;7395694;19;20133;-77
2022/09/14 10:33:13;;;;;;;3.33;1.92;;;;;23.00;93235.00;;;;7397422;19;20117;-78
2022/09/14 10:36:26;;;;;;;3.25;1.92;;;;;23.30;93225.00;;;;7395690;19;20164;-77
2022/09/14 10:38:59;;;;;;;5.20;1.90;;;;;23.50;93210.00;;;;7393801;19;20148;-76
2022/09/14 10:41:57;;;;;;;3.70;1.73;;;;;23.90;93210.00;;;;7396504;19;20533;-78
2022/09/14 10:44:54;;;;;;;8.20;2.20;;;;;24.00;93202.00;;;;7394696;19;20133;-77
2022/09/14 10:47:34;;;;;;;4.10;2.10;;;;;24.40;93195.00;;;;7392581;19;20139;-79
2022/09/14 10:50:40;;;;;;;2.58;1.77;;;;;24.20;93205.00;;;;7393150;19;20156;-75
2022/09/14 10:53:27;;;;;;;3.70;1.85;;;;;23.70;93206.00;;;;7391782;19;20117;-77
2022/09/14 10:56:25;;;;;;;4.03;1.80;;;;;23.00;93213.00;;;;7389322;19;20137;-77
2022/09/14 10:59:15;;;;;;;3.28;1.90;;;;;22.90;93207.00;;;;7391461;19;20128;-77
2022/09/14 11:02:12;;;;;;;4.50;2.13;;;;;23.10;93206.00;;;;7388767;19;20128;-78
2022/09/14 11:04:56;;;;;;;4.38;1.80;;;;;23.70;93192.00;;;;7389049;19;20141;-79
2022/09/14 11:07:43;;;;;;;3.80;1.77;;;;;23.90;93195.00;;;;7390037;19;20117;-79
2022/09/14 11:10:52;;;;;;;5.05;2.05;;;;;24.10;93189.00;;;;7387110;19;20163;-78
2022/09/14 11:13:33;;;;;;;5.18;1.90;;;;;24.20;93190.00;;;;7388193;19;20128;-78
2022/09/14 11:16:28;;;;;;;3.92;2.00;;;;;24.00;93200.00;;;;7388096;19;20137;-78
2022/09/14 11:19:13;;;;;;;5.65;2.17;;;;;23.30;93196.00;;;;7389848;19;20133;-79
2022/09/14 11:22:14;;;;;;;2.50;1.80;;;;;23.00;93199.00;;;;7390151;19;20136;-79
2022/09/14 11:24:52;;;;;;;4.18;1.90;;;;;22.90;93202.00;;;;7388997;19;20196;-78
2022/09/14 11:27:55;;;;;;;5.22;1.85;;;;;22.90;93199.00;;;;7388750;19;20441;-79
2022/09/14 11:30:41;;;;;;;3.58;1.92;;;;;22.80;93213.00;;;;7386819;19;20140;-77
2022/09/14 11:33:28;;;;;;;3.72;2.17;;;;;22.90;93210.00;;;;7389075;19;20124;-79
2022/09/14 11:36:11;;;;;;;5.63;2.10;;;;;22.80;93201.00;;;;7386320;19;20149;-80
2022/09/14 11:39:12;;;;;;;6.65;2.63;;;;;22.70;93206.00;;;;7388024;19;20128;-78
2022/09/14 11:41:51;;;;;;;4.20;2.20;;;;;22.70;93193.00;;;;7388298;19;20153;-78
2022/09/14 11:44:39;;;;;;;5.18;1.92;;;;;22.80;93208.00;;;;7386818;19;20137;-79
2022/09/14 11:47:19;;;;;;;7.50;2.30;;;;;22.50;93217.00;;;;7389287;19;20121;-79
2022/09/14 11:50:10;;;;;;;4.20;2.08;;;;;22.30;93225.00;;;;7388623;19;20124;-77
2022/09/14 11:52:37;;;;;;;3.33;2.15;;;;;22.20;93225.00;;;;7386809;19;20746;-79
2022/09/14 11:55:16;;;;;;;3.63;1.95;;;;;21.80;93227.00;;;;7386342;19;20501;-79
2022/09/14 11:57:45;;;;;;;3.75;2.10;;;;;21.70;93224.00;;;;7388522;19;20132;-79
2022/09/14 12:00:29;;;;;;;6.68;1.98;;;;;21.50;93227.00;;;;7386710;19;20232;-78
2022/09/14 12:02:58;;;;;;;4.72;2.00;;;;;21.40;93225.00;;;;7386630;19;20135;-78
2022/09/14 12:05:34;;;;;;;5.70;2.38;;;;;21.30;93234.00;;;;7387285;19;20141;-79
2022/09/14 12:08:23;;;;;;;2.88;1.92;;;;;21.10;93238.00;;;;7386720;19;20835;-80
2022/09/14 12:11:09;;;;;;;3.95;2.10;;;;;21.00;93230.00;;;;7388120;19;20594;-78
2022/09/14 12:13:37;;;;;;;4.00;2.15;;;;;21.00;93239.00;;;;7386761;19;20125;-79
2022/09/14 12:16:11;;;;;;;5.50;2.50;;;;;20.80;93240.00;;;;7389734;19;20576;-78
2022/09/14 12:18:43;;;;;;;2.85;2.33;;;;;20.80;93242.00;;;;7391113;19;20572;-78
2022/09/14 12:21:39;;;;;;;5.97;2.40;;;;;20.70;93269.00;;;;7388474;19;20144;-78
2022/09/14 12:24:14;;;;;;;11.02;2.70;;;;;20.70;93277.00;;;;7386463;19;20143;-79
2022/09/14 12:26:42;;;;;;;5.82;2.40;;;;;20.50;93284.00;;;;7385775;19;20133;-81
2022/09/14 12:29:32;;;;;;;5.75;2.47;;;;;20.30;93304.00;;;;7386110;19;20131;-77
2022/09/14 12:32:41;;;;;;;4.80;2.67;;;;;19.90;93311.00;;;;7384817;19;20124;-76
2022/09/14 12:35:45;;;;;;;4.75;2.72;;;;;19.20;93311.00;;;;7383730;19;20194;-78
2022/09/14 12:38:58;;;;;;;5.80;3.08;;;;;18.80;93313.00;;;;7386766;19;20132;-79
2022/09/14 12:41:34;;;;;;;8.07;2.60;;;;;18.50;93326.00;;;;7384260;19;20140;-77
2022/09/14 12:44:35;;;;;;;3.92;2.50;;;;;18.10;93338.00;;;;7381262;19;20168;-77
2022/09/14 12:47:24;;;;;;;8.77;2.97;;;;;17.80;93341.00;;;;7385146;19;20137;-78
2022/09/14 12:50:27;;;;;;;5.88;3.03;;;;;17.70;93361.00;;;;7387113;19;20135;-80
2022/09/14 12:53:07;;;;;;;5.63;2.67;;;;;17.60;93363.00;;;;7383786;19;20144;-79
2022/09/14 12:55:54;;;;;;;2.90;2.55;;;;;17.40;93365.00;;;;7386180;19;20642;-79
2022/09/14 12:58:29;;;;;;;5.78;2.65;;;;;17.40;93375.00;;;;7385631;19;20136;-77
2022/09/14 13:01:33;;;;;;;7.88;2.65;;;;;17.30;93370.00;;;;7385146;19;20120;-79
2022/09/14 13:04:03;;;;;;;4.57;2.88;;;;;17.30;93375.00;;;;7385403;19;20137;-78
2022/09/14 13:06:46;;;;;;;6.75;2.85;;;;;17.30;93373.00;;;;7384786;19;20207;-77
2022/09/14 13:09:25;;;;;;;10.75;2.97;;;;;17.30;93369.00;;;;7387536;19;20121;-77
2022/09/14 13:12:05;;;;;;;6.53;3.15;;;;;17.30;93359.00;;;;7386607;19;20133;-77